createdAt,value
2017-05-19T00:01:47.328Z,100814.53
2017-05-19T00:04:13.346Z,100802.01
2017-05-19T00:06:39.225Z,100803.88
2017-05-19T00:09:05.833Z,100809.73
2017-05-19T00:11:31.709Z,100807.72
2017-05-19T00:13:57.591Z,100801.72
2017-05-19T00:16:24.284Z,100804.17
2017-05-19T00:18:50.156Z,100796.65
2017-05-19T00:21:16.789Z,100787.48
2017-05-19T00:23:43.395Z,100784.36
2017-05-19T00:26:09.276Z,100772.41
2017-05-19T00:28:35.154Z,100769.39
2017-05-19T00:31:01.015Z,100764.55
2017-05-19T00:33:26.896Z,100771.33
2017-05-19T00:35:52.761Z,100781.02
2017-05-19T00:38:18.640Z,100771.68
2017-05-19T00:40:45.250Z,100760.33
2017-05-19T00:43:11.124Z,100776.09
2017-05-19T00:45:36.989Z,100771.22
2017-05-19T00:48:02.855Z,100775.52
2017-05-19T00:50:28.731Z,100770.56
2017-05-19T00:52:54.600Z,100776.88
2017-05-19T00:55:20.481Z,100768.01
2017-05-19T00:57:46.360Z,100765.76
2017-05-19T01:00:12.451Z,100766.19
2017-05-19T01:02:38.421Z,100771.34
2017-05-19T01:05:04.293Z,100773.60
2017-05-19T01:07:30.914Z,100775.41
2017-05-19T01:09:57.553Z,100767.17
2017-05-19T01:12:24.163Z,100771.71
2017-05-19T01:14:50.118Z,100769.69
2017-05-19T01:17:16.740Z,100770.62
2017-05-19T01:19:42.617Z,100764.20
2017-05-19T01:22:08.568Z,100756.09
2017-05-19T01:24:34.440Z,100750.45
2017-05-19T01:27:00.381Z,100755.09
2017-05-19T01:29:26.248Z,100756.98
2017-05-19T01:31:52.871Z,100745.13
2017-05-19T01:34:18.814Z,100749.20
2017-05-19T01:36:45.427Z,100751.02
2017-05-19T01:39:11.370Z,100745.29
2017-05-19T01:41:37.977Z,100743.20
2017-05-19T01:44:03.870Z,100745.19
2017-05-19T01:46:29.814Z,100744.43
2017-05-19T01:48:55.692Z,100748.17
2017-05-19T01:51:21.553Z,100744.63
2017-05-19T01:53:47.464Z,100753.60
2017-05-19T01:56:13.340Z,100756.78
2017-05-19T01:58:39.201Z,100752.83
2017-05-19T02:01:05.076Z,100751.81
2017-05-19T02:03:31.014Z,100760.45
2017-05-19T02:05:56.971Z,100760.42
2017-05-19T02:08:22.837Z,100768.57
2017-05-19T02:10:48.722Z,100774.30
2017-05-19T02:13:14.603Z,100772.56
2017-05-19T02:15:40.467Z,100779.78
2017-05-19T02:18:06.402Z,100789.83
2017-05-19T02:20:33.003Z,100782.73
2017-05-19T02:22:58.873Z,100790.27
2017-05-19T02:25:24.740Z,100791.97
2017-05-19T02:27:50.601Z,100794.56
2017-05-19T02:30:17.292Z,100790.55
2017-05-19T02:32:43.252Z,100793.54
2017-05-19T02:35:09.889Z,100803.37
2017-05-19T02:37:36.591Z,100795.78
2017-05-19T02:40:02.462Z,100796.56
2017-05-19T02:42:28.336Z,100791.70
2017-05-19T02:44:54.210Z,100792.95
2017-05-19T02:47:20.072Z,100804.20
2017-05-19T02:49:45.944Z,100816.58
2017-05-19T02:52:11.837Z,100819.80
2017-05-19T02:54:38.538Z,100825.28
2017-05-19T02:57:04.415Z,100823.08
2017-05-19T02:59:30.293Z,100828.78
2017-05-19T03:01:56.155Z,100836.56
2017-05-19T03:04:22.026Z,100838.13
2017-05-19T03:06:47.905Z,100852.23
2017-05-19T03:09:13.775Z,100852.50
2017-05-19T03:11:39.652Z,100869.52
2017-05-19T03:14:05.537Z,100869.81
2017-05-19T03:16:32.147Z,100878.19
2017-05-19T03:18:58.141Z,100885.61
2017-05-19T03:21:24.036Z,100880.36
2017-05-19T03:23:49.887Z,100881.38
2017-05-19T03:26:15.780Z,100883.62
2017-05-19T03:28:41.659Z,100890.59
2017-05-19T03:31:07.541Z,100888.70
2017-05-19T03:33:33.438Z,100885.50
2017-05-19T03:35:59.379Z,100885.02
2017-05-19T03:38:25.248Z,100903.02
2017-05-19T03:40:51.887Z,100905.69
2017-05-19T03:43:18.585Z,100911.39
2017-05-19T03:45:44.480Z,100913.19
2017-05-19T03:48:10.353Z,100913.75
2017-05-19T03:50:36.215Z,100924.44
2017-05-19T03:53:02.103Z,100935.42
2017-05-19T03:55:28.727Z,100939.31
2017-05-19T03:57:56.192Z,100916.66
2017-05-19T04:00:22.828Z,100931.02
2017-05-19T04:02:49.447Z,100941.16
2017-05-19T04:05:15.326Z,100938.36
2017-05-19T04:07:41.208Z,100935.37
2017-05-19T04:10:07.844Z,100944.27
2017-05-19T04:12:34.452Z,100939.19
2017-05-19T04:15:00.399Z,100936.58
2017-05-19T04:17:27.092Z,100930.59
2017-05-19T04:19:52.988Z,100953.30
2017-05-19T04:22:18.844Z,100958.02
2017-05-19T04:24:44.723Z,100949.89
2017-05-19T04:27:10.614Z,100956.69
2017-05-19T04:29:37.229Z,100979.25
2017-05-19T04:32:03.133Z,100975.83
2017-05-19T04:34:29.012Z,100987.25
2017-05-19T04:36:54.886Z,101003.02
2017-05-19T04:39:20.946Z,101008.64
2017-05-19T04:41:47.558Z,101016.39
2017-05-19T04:44:13.438Z,101030.75
2017-05-19T04:46:39.419Z,101039.77
2017-05-19T04:49:06.033Z,101040.66
2017-05-19T04:51:31.904Z,101049.47
2017-05-19T04:53:57.770Z,101049.71
2017-05-19T04:56:23.667Z,101052.05
2017-05-19T04:58:49.562Z,101064.98
2017-05-19T05:01:15.492Z,101066.19
2017-05-19T05:03:41.433Z,101074.57
2017-05-19T05:06:07.314Z,101082.02
2017-05-19T05:08:33.194Z,101084.59
2017-05-19T05:10:59.055Z,101088.00
2017-05-19T05:13:24.939Z,101089.14
2017-05-19T05:15:51.562Z,101089.22
2017-05-19T05:18:30.489Z,101092.95
2017-05-19T05:20:56.436Z,101097.61
2017-05-19T05:23:23.100Z,101088.80
2017-05-19T05:25:48.963Z,101100.36
2017-05-19T05:28:14.835Z,101093.23
2017-05-19T05:30:40.778Z,101086.70
2017-05-19T05:33:06.745Z,101093.08
2017-05-19T05:35:33.385Z,101099.24
2017-05-19T05:37:59.982Z,101089.44
2017-05-19T05:40:25.899Z,101103.75
2017-05-19T05:42:51.816Z,101115.13
2017-05-19T05:45:17.734Z,101109.21
2017-05-19T05:47:43.617Z,101114.72
2017-05-19T05:50:09.507Z,101113.56
2017-05-19T05:52:35.369Z,101119.72
2017-05-19T05:55:01.321Z,101118.54
2017-05-19T05:57:27.291Z,101120.36
2017-05-19T05:59:53.229Z,101131.19
2017-05-19T06:02:19.112Z,101133.62
2017-05-19T06:04:45.730Z,101139.42
2017-05-19T06:07:11.608Z,101136.09
2017-05-19T06:09:37.471Z,101128.66
2017-05-19T06:12:03.461Z,101144.05
2017-05-19T06:14:29.355Z,101152.12
2017-05-19T06:16:55.289Z,101160.19
2017-05-19T06:19:21.230Z,101167.42
2017-05-19T06:21:47.144Z,101175.36
2017-05-19T06:24:13.122Z,101183.77
2017-05-19T06:26:39.736Z,101177.28
2017-05-19T06:29:05.600Z,101176.88
2017-05-19T06:31:31.476Z,101190.98
2017-05-19T06:33:57.377Z,101191.22
2017-05-19T06:36:23.399Z,101199.58
2017-05-19T06:38:49.261Z,101196.94
2017-05-19T06:41:15.869Z,101201.41
2017-05-19T06:43:41.823Z,101196.58
2017-05-19T06:46:07.757Z,101192.67
2017-05-19T06:48:33.629Z,101198.72
2017-05-19T06:50:59.506Z,101198.59
2017-05-19T06:53:25.424Z,101210.41
2017-05-19T06:55:51.344Z,101203.58
2017-05-19T06:58:17.232Z,101214.00
2017-05-19T07:00:43.888Z,101221.01
2017-05-19T07:05:40.417Z,101223.74
2017-05-19T07:08:07.020Z,101226.66
2017-05-19T07:10:32.910Z,101233.81
2017-05-19T07:12:58.787Z,101230.65
2017-05-19T07:15:25.456Z,101232.67
2017-05-19T07:17:51.398Z,101234.34
2017-05-19T07:20:17.385Z,101242.02
2017-05-19T07:22:43.381Z,101250.97
2017-05-19T07:25:09.272Z,101247.34
2017-05-19T07:27:35.233Z,101260.80
2017-05-19T07:30:01.844Z,101268.65
2017-05-19T07:32:27.738Z,101269.49
2017-05-19T07:34:53.632Z,101284.41
2017-05-19T07:37:19.513Z,101290.06
2017-05-19T07:39:45.472Z,101287.87
2017-05-19T07:42:11.442Z,101296.86
2017-05-19T07:44:37.307Z,101294.41
2017-05-19T07:47:03.182Z,101298.84
2017-05-19T07:49:29.059Z,101306.27
2017-05-19T07:51:55.015Z,101309.47
2017-05-19T07:54:20.900Z,101317.58
2017-05-19T07:56:46.851Z,101308.66
2017-05-19T07:59:12.724Z,101316.61
2017-05-19T08:01:38.606Z,101315.95
2017-05-19T08:04:04.480Z,101321.36
2017-05-19T08:06:30.376Z,101320.88
2017-05-19T08:08:57.076Z,101323.87
2017-05-19T08:11:22.935Z,101318.44
2017-05-19T08:13:48.883Z,101323.70
2017-05-19T08:16:14.739Z,101325.36
2017-05-19T08:18:40.613Z,101320.38
2017-05-19T08:21:06.612Z,101312.59
2017-05-19T08:23:33.231Z,101317.58
2017-05-19T08:25:59.921Z,101319.03
2017-05-19T08:28:25.794Z,101314.22
2017-05-19T08:30:52.416Z,101320.30
2017-05-19T08:33:18.331Z,101318.39
2017-05-19T08:35:44.194Z,101320.09
2017-05-19T08:38:10.168Z,101314.69
2017-05-19T08:40:36.039Z,101310.88
2017-05-19T08:43:01.937Z,101311.63
2017-05-19T08:45:28.552Z,101308.45
2017-05-19T08:47:54.470Z,101302.41
2017-05-19T08:50:20.439Z,101311.77
2017-05-19T08:52:46.312Z,101302.01
2017-05-19T08:55:12.235Z,101298.94
2017-05-19T08:57:38.144Z,101298.45
2017-05-19T09:00:04.021Z,101298.00
2017-05-19T09:02:29.965Z,101301.35
2017-05-19T09:04:56.005Z,101296.31
2017-05-19T09:07:21.877Z,101302.66
2017-05-19T09:09:47.786Z,101294.70
2017-05-19T09:12:14.387Z,101304.42
2017-05-19T09:14:40.394Z,101291.45
2017-05-19T09:17:06.252Z,101301.04
2017-05-19T09:19:32.847Z,101306.54
2017-05-19T09:21:58.783Z,101314.77
2017-05-19T09:24:24.684Z,101324.17
2017-05-19T09:26:50.667Z,101336.00
2017-05-19T09:29:17.266Z,101338.64
2017-05-19T09:31:43.191Z,101344.69
2017-05-19T09:34:09.031Z,101343.07
2017-05-19T09:36:35.691Z,101349.80
2017-05-19T09:39:01.580Z,101350.53
2017-05-19T09:41:28.212Z,101357.34
2017-05-19T09:43:54.056Z,101351.97
2017-05-19T09:46:19.955Z,101363.98
2017-05-19T09:48:46.588Z,101364.22
2017-05-19T09:51:13.236Z,101372.37
2017-05-19T09:53:39.836Z,101368.00
2017-05-19T09:56:06.103Z,101366.94
2017-05-19T09:58:32.788Z,101369.28
2017-05-19T10:00:58.657Z,101371.61
2017-05-19T10:03:25.260Z,101369.17
2017-05-19T10:05:51.306Z,101378.56
2017-05-19T10:08:17.927Z,101370.27
2017-05-19T10:10:43.817Z,101362.14
2017-05-19T10:13:09.775Z,101364.67
2017-05-19T10:15:35.651Z,101362.21
2017-05-19T10:18:01.608Z,101362.53
2017-05-19T10:20:27.492Z,101364.28
2017-05-19T10:22:53.366Z,101367.57
2017-05-19T10:25:20.076Z,101373.38
2017-05-19T10:27:45.957Z,101382.61
2017-05-19T10:30:11.915Z,101384.56
2017-05-19T10:32:37.799Z,101385.70
2017-05-19T10:35:03.656Z,101383.95
2017-05-19T10:37:29.524Z,101387.33
2017-05-19T10:39:55.401Z,101388.41
2017-05-19T10:42:21.392Z,101383.82
2017-05-19T10:44:47.333Z,101383.86
2017-05-19T10:47:13.211Z,101391.71
2017-05-19T10:49:39.074Z,101393.75
2017-05-19T10:52:04.962Z,101388.64
2017-05-19T10:54:30.960Z,101395.33
2017-05-19T10:56:56.880Z,101395.12
2017-05-19T10:59:22.769Z,101395.30
2017-05-19T11:01:48.646Z,101395.33
2017-05-19T11:04:14.510Z,101385.95
2017-05-19T11:06:40.461Z,101400.09
2017-05-19T11:09:06.499Z,101409.72
2017-05-19T11:11:32.373Z,101394.96
2017-05-19T11:13:58.251Z,101401.89
2017-05-19T11:16:24.124Z,101394.10
2017-05-19T11:18:50.728Z,101403.09
2017-05-19T11:21:16.586Z,101398.01
2017-05-19T11:23:43.368Z,101403.61
2017-05-19T11:26:09.248Z,101405.12
2017-05-19T11:28:35.899Z,101399.44
2017-05-19T11:31:01.804Z,101418.64
2017-05-19T11:33:28.435Z,101424.16
2017-05-19T11:35:55.204Z,101419.50
2017-05-19T11:38:21.081Z,101430.56
2017-05-19T11:40:47.693Z,101434.47
2017-05-19T11:43:13.608Z,101434.33
2017-05-19T11:45:39.585Z,101429.80
2017-05-19T11:48:05.460Z,101432.03
2017-05-19T11:50:31.336Z,101448.19
2017-05-19T11:55:28.224Z,101441.28
2017-05-19T11:57:54.197Z,101446.87
2017-05-19T12:00:20.796Z,101457.11
2017-05-19T12:02:46.671Z,101454.73
2017-05-19T12:05:12.599Z,101459.33
2017-05-19T12:07:38.468Z,101455.86
2017-05-19T12:10:04.338Z,101463.63
2017-05-19T12:12:30.214Z,101450.78
2017-05-19T12:14:56.841Z,101451.86
2017-05-19T12:17:22.736Z,101450.53
2017-05-19T12:19:48.699Z,101448.30
2017-05-19T12:22:15.349Z,101446.76
2017-05-19T12:24:41.964Z,101446.52
2017-05-19T12:27:08.598Z,101450.45
2017-05-19T12:29:35.215Z,101447.03
2017-05-19T12:32:01.199Z,101452.67
2017-05-19T12:34:27.109Z,101451.08
2017-05-19T12:36:53.707Z,101454.17
2017-05-19T12:39:19.594Z,101452.70
2017-05-19T12:41:45.458Z,101445.03
2017-05-19T12:44:12.260Z,101440.28
2017-05-19T12:46:38.238Z,101441.89
2017-05-19T12:49:04.109Z,101448.55
2017-05-19T12:51:29.994Z,101446.84
2017-05-19T12:53:55.889Z,101446.34
2017-05-19T12:56:22.755Z,101444.67
2017-05-19T12:58:48.632Z,101448.58
2017-05-19T13:01:14.547Z,101441.63
2017-05-19T13:03:40.412Z,101440.31
2017-05-19T13:06:06.356Z,101435.77
2017-05-19T13:08:33.019Z,101440.72
2017-05-19T13:10:58.899Z,101434.09
2017-05-19T13:13:24.802Z,101434.20
2017-05-19T13:15:50.710Z,101447.05
2017-05-19T13:18:17.350Z,101447.55
2017-05-19T13:20:44.079Z,101446.55
2017-05-19T13:23:10.102Z,101456.97
2017-05-19T13:25:36.730Z,101443.91
2017-05-19T13:28:03.341Z,101451.58
2017-05-19T13:30:29.213Z,101456.35
2017-05-19T13:32:55.132Z,101459.69
2017-05-19T13:35:21.025Z,101449.62
2017-05-19T13:37:47.655Z,101449.20
2017-05-19T13:40:13.519Z,101445.89
2017-05-19T13:42:39.395Z,101444.09
2017-05-19T13:45:06.024Z,101446.06
2017-05-19T13:47:31.901Z,101444.21
2017-05-19T13:49:57.759Z,101452.36
2017-05-19T13:52:23.621Z,101452.23
2017-05-19T13:54:49.497Z,101450.31
2017-05-19T13:57:15.375Z,101449.44
2017-05-19T13:59:41.323Z,101445.58
2017-05-19T14:02:07.250Z,101442.11
2017-05-19T14:04:33.166Z,101443.37
2017-05-19T14:06:59.128Z,101438.30
2017-05-19T14:09:25.739Z,101438.95
2017-05-19T14:11:51.616Z,101443.99
2017-05-19T14:14:17.509Z,101444.38
2017-05-19T14:16:44.117Z,101437.64
2017-05-19T14:19:10.086Z,101443.37
2017-05-19T14:21:36.034Z,101440.70
2017-05-19T14:24:01.903Z,101440.00
2017-05-19T14:26:28.518Z,101452.22
2017-05-19T14:28:54.391Z,101446.98
2017-05-19T14:31:20.370Z,101459.75
2017-05-19T14:33:47.035Z,101464.56
2017-05-19T14:36:12.932Z,101471.36
2017-05-19T14:38:39.555Z,101469.58
2017-05-19T14:41:05.422Z,101483.08
2017-05-19T14:43:31.845Z,101481.28
2017-05-19T14:45:57.666Z,101485.48
2017-05-19T14:48:23.537Z,101476.86
2017-05-19T14:50:49.506Z,101478.61
2017-05-19T14:53:15.382Z,101492.11
2017-05-19T14:55:41.299Z,101495.68
2017-05-19T14:58:07.198Z,101497.41
2017-05-19T15:00:33.068Z,101499.36
2017-05-19T15:02:59.173Z,101492.34
2017-05-19T15:05:25.801Z,101484.53
2017-05-19T15:07:51.684Z,101472.98
2017-05-19T15:10:17.586Z,101479.06
2017-05-19T15:12:43.460Z,101470.25
2017-05-19T15:15:09.396Z,101471.06
2017-05-19T15:17:36.010Z,101474.47
2017-05-19T15:20:01.948Z,101470.08
2017-05-19T15:22:28.562Z,101466.12
2017-05-19T15:24:54.474Z,101470.86
2017-05-19T15:27:20.903Z,101474.04
2017-05-19T15:29:47.471Z,101477.02
2017-05-19T15:32:14.176Z,101470.56
2017-05-19T15:34:40.045Z,101462.59
2017-05-19T15:37:06.664Z,101462.38
2017-05-19T15:39:33.300Z,101470.09
2017-05-19T15:41:59.950Z,101472.94
2017-05-19T15:44:25.899Z,101465.97
2017-05-19T15:46:51.792Z,101469.74
2017-05-19T15:49:18.421Z,101479.14
2017-05-19T15:51:45.032Z,101467.41
2017-05-19T15:54:10.967Z,101475.65
2017-05-19T15:56:37.440Z,101466.78
2017-05-19T15:59:03.287Z,101468.88
2017-05-19T16:01:29.753Z,101478.25
2017-05-19T16:03:55.577Z,101474.77
2017-05-19T16:06:22.203Z,101475.77
2017-05-19T16:08:48.318Z,101478.28
2017-05-19T16:11:14.340Z,101480.89
2017-05-19T16:13:40.215Z,101485.36
2017-05-19T16:16:06.088Z,101489.34
2017-05-19T16:18:31.993Z,101482.08
2017-05-19T16:20:58.133Z,101483.80
2017-05-19T16:23:24.028Z,101491.47
2017-05-19T16:25:49.933Z,101483.05
2017-05-19T16:28:15.852Z,101481.79
2017-05-19T16:30:41.736Z,101483.91
2017-05-19T16:33:08.529Z,101485.29
2017-05-19T16:35:34.411Z,101482.66
2017-05-19T16:38:00.312Z,101491.98
2017-05-19T16:40:26.927Z,101494.33
2017-05-19T16:42:52.929Z,101501.84
2017-05-19T16:45:18.861Z,101500.14
2017-05-19T16:47:44.752Z,101510.83
2017-05-19T16:50:10.693Z,101507.91
2017-05-19T16:52:36.585Z,101511.37
2017-05-19T16:55:02.456Z,101509.36
2017-05-19T16:57:29.178Z,101508.34
2017-05-19T16:59:55.066Z,101499.16
2017-05-19T17:02:21.570Z,101509.27
2017-05-19T17:04:47.384Z,101505.56
2017-05-19T17:07:14.016Z,101506.98
2017-05-19T17:09:42.145Z,101514.41
2017-05-19T17:12:07.988Z,101530.09
2017-05-19T17:14:33.887Z,101528.63
2017-05-19T17:16:59.768Z,101527.30
2017-05-19T17:19:25.677Z,101529.36
2017-05-19T17:21:51.656Z,101534.36
2017-05-19T17:24:17.539Z,101534.64
2017-05-19T17:26:43.412Z,101524.27
2017-05-19T17:29:10.061Z,101526.52
2017-05-19T17:31:35.979Z,101522.50
2017-05-19T17:34:02.701Z,101524.75
2017-05-19T17:36:28.580Z,101514.83
2017-05-19T17:38:54.494Z,101526.82
2017-05-19T17:41:20.371Z,101533.65
2017-05-19T17:43:47.006Z,101536.01
2017-05-19T17:46:13.081Z,101539.11
2017-05-19T17:48:38.968Z,101539.04
2017-05-19T17:51:05.592Z,101547.34
2017-05-19T17:53:32.229Z,101546.27
2017-05-19T17:55:58.844Z,101536.19
2017-05-19T17:58:24.821Z,101536.23
2017-05-19T18:00:50.734Z,101537.48
2017-05-19T18:03:16.630Z,101526.45
2017-05-19T18:05:43.267Z,101539.45
2017-05-19T18:08:09.927Z,101545.70
2017-05-19T18:10:36.666Z,101534.81
2017-05-19T18:13:02.566Z,101539.67
2017-05-19T18:15:29.401Z,101535.14
2017-05-19T18:17:56.111Z,101545.37
2017-05-19T18:20:21.989Z,101547.18
2017-05-19T18:22:47.940Z,101557.16
2017-05-19T18:25:13.863Z,101565.80
2017-05-19T18:27:39.747Z,101570.83
2017-05-19T18:30:05.681Z,101573.20
2017-05-19T18:32:31.530Z,101572.78
2017-05-19T18:34:57.521Z,101575.06
2017-05-19T18:37:23.404Z,101576.97
2017-05-19T18:39:49.279Z,101572.80
2017-05-19T18:42:15.185Z,101578.80
2017-05-19T18:44:41.085Z,101583.77
2017-05-19T18:47:07.089Z,101600.09
2017-05-19T18:49:33.730Z,101612.01
2017-05-19T18:51:59.607Z,101610.86
2017-05-19T18:54:25.489Z,101605.41
2017-05-19T18:56:51.437Z,101603.88
2017-05-19T18:59:17.434Z,101601.88
2017-05-19T19:01:44.047Z,101605.97
2017-05-19T19:04:10.704Z,101604.62
2017-05-19T19:06:36.576Z,101619.02
2017-05-19T19:09:02.458Z,101624.92
2017-05-19T19:11:28.456Z,101619.41
2017-05-19T19:13:55.054Z,101634.09
2017-05-19T19:16:20.975Z,101638.84
2017-05-19T19:18:46.856Z,101642.81
2017-05-19T19:21:12.752Z,101657.13
2017-05-19T19:23:38.725Z,101650.77
2017-05-19T19:26:04.611Z,101658.28
2017-05-19T19:28:30.522Z,101657.08
2017-05-19T19:30:56.400Z,101653.77
2017-05-19T19:33:22.306Z,101656.42
2017-05-19T19:35:48.285Z,101657.82
2017-05-19T19:38:14.187Z,101666.73
2017-05-19T19:40:40.808Z,101674.19
2017-05-19T19:43:07.455Z,101668.93
2017-05-19T19:45:34.110Z,101662.33
2017-05-19T19:48:00.104Z,101664.22
2017-05-19T19:50:26.749Z,101663.19
2017-05-19T19:52:53.417Z,101665.29
2017-05-19T19:55:19.298Z,101667.81
2017-05-19T19:57:45.175Z,101658.82
2017-05-19T20:00:11.165Z,101663.23
2017-05-19T20:02:37.049Z,101676.12
2017-05-19T20:05:02.933Z,101666.42
2017-05-19T20:07:28.808Z,101667.05
2017-05-19T20:09:55.426Z,101672.98
2017-05-19T20:12:21.370Z,101680.10
2017-05-19T20:14:48.050Z,101688.09
2017-05-19T20:17:13.925Z,101682.64
2017-05-19T20:19:40.552Z,101683.84
2017-05-19T20:22:07.194Z,101676.41
2017-05-19T20:24:34.036Z,101685.23
2017-05-19T20:27:00.653Z,101690.77
2017-05-19T20:29:26.516Z,101699.69
2017-05-19T20:31:52.389Z,101700.21
2017-05-19T20:34:18.260Z,101709.87
2017-05-19T20:36:44.232Z,101709.52
2017-05-19T20:39:10.107Z,101726.17
2017-05-19T20:41:35.975Z,101731.27
2017-05-19T20:44:01.848Z,101730.31
2017-05-19T20:46:27.730Z,101722.89
2017-05-19T20:48:54.419Z,101724.31
2017-05-19T20:51:20.300Z,101712.39
2017-05-19T20:53:46.921Z,101706.07
2017-05-19T20:56:13.524Z,101705.54
2017-05-19T20:58:39.403Z,101702.70
2017-05-19T21:01:05.359Z,101698.03
2017-05-19T21:03:31.280Z,101691.59
2017-05-19T21:05:57.168Z,101690.71
2017-05-19T21:08:23.109Z,101690.70
2017-05-19T21:10:48.985Z,101675.39
2017-05-19T21:13:15.721Z,101685.39
2017-05-19T21:15:42.379Z,101686.11
2017-05-19T21:18:08.244Z,101701.87
2017-05-19T21:20:34.155Z,101703.74
2017-05-19T21:23:00.021Z,101698.56
2017-05-19T21:25:26.768Z,101697.13
2017-05-19T21:27:52.664Z,101698.44
2017-05-19T21:30:18.566Z,101692.39
2017-05-19T21:32:44.441Z,101700.45
2017-05-19T21:35:10.332Z,101696.42
2017-05-19T21:37:37.043Z,101698.05
2017-05-19T21:40:02.925Z,101697.08
2017-05-19T21:42:29.027Z,101705.52
2017-05-19T21:44:54.871Z,101702.73
2017-05-19T21:47:20.764Z,101719.01
2017-05-19T21:49:46.732Z,101724.14
2017-05-19T21:52:12.638Z,101729.63
2017-05-19T21:54:38.523Z,101738.80
2017-05-19T21:57:04.401Z,101738.44
2017-05-19T21:59:30.310Z,101733.06
2017-05-19T22:01:56.277Z,101736.61
2017-05-19T22:04:22.895Z,101741.08
2017-05-19T22:06:48.784Z,101744.02
2017-05-19T22:09:14.654Z,101742.15
2017-05-19T22:11:41.306Z,101740.16
2017-05-19T22:14:07.297Z,101745.53
2017-05-19T22:16:33.901Z,101741.44
2017-05-19T22:18:59.784Z,101744.31
2017-05-19T22:21:25.658Z,101750.71
2017-05-19T22:23:51.555Z,101751.81
2017-05-19T22:26:17.508Z,101758.77
2017-05-19T22:28:43.385Z,101762.21
2017-05-19T22:31:09.264Z,101759.74
2017-05-19T22:33:35.876Z,101761.41
2017-05-19T22:36:01.740Z,101760.73
2017-05-19T22:38:28.010Z,101765.98
2017-05-19T22:40:53.886Z,101771.60
2017-05-19T22:43:20.561Z,101770.84
2017-05-19T22:45:46.508Z,101770.47
2017-05-19T22:48:12.581Z,101760.66
2017-05-19T22:50:38.666Z,101764.60
2017-05-19T22:53:05.325Z,101764.16
2017-05-19T22:55:31.265Z,101765.03
2017-05-19T22:57:57.138Z,101764.26
2017-05-19T23:00:23.752Z,101756.79
2017-05-19T23:02:49.865Z,101764.23
2017-05-19T23:05:15.703Z,101762.66
2017-05-19T23:07:41.576Z,101764.02
2017-05-19T23:10:07.568Z,101772.58
2017-05-19T23:12:34.180Z,101769.52
2017-05-19T23:15:00.154Z,101776.64
2017-05-19T23:17:26.032Z,101774.80
2017-05-19T23:19:52.702Z,101773.99
2017-05-19T23:22:18.559Z,101774.55
2017-05-19T23:24:44.446Z,101774.20
2017-05-19T23:27:10.409Z,101771.58
2017-05-19T23:29:36.283Z,101781.14
2017-05-19T23:32:02.163Z,101774.83
2017-05-19T23:34:28.055Z,101774.48
2017-05-19T23:36:53.939Z,101775.23
2017-05-19T23:39:20.000Z,101788.27
2017-05-19T23:41:45.857Z,101793.28
2017-05-19T23:44:12.495Z,101788.07
2017-05-19T23:46:39.115Z,101786.99
2017-05-19T23:49:04.996Z,101778.89
2017-05-19T23:51:30.952Z,101792.91
2017-05-19T23:53:56.899Z,101795.42
2017-05-19T23:56:23.580Z,101794.77
2017-05-19T23:58:49.464Z,101802.12
